Bela Cruz, Brazil
Current Conditions -  °F | °C
As of 9:00 AM on Saturday 20 Dec 2014 (Local Time) from SBPB Reporting Station
Few Clouds Few Clouds  
Wind Chill: 90°   Ceiling: Unl
Heat Index: 95°   Visibility: 6mi
Dew Point: 70°   Wind: 21mph
Humidity: 52%   Direction: 90°E
Pressure: 29.88"   Gusts: NA
Location:  3.05°S, 40.17°W
Report Text: SBPB 201200Z 09018KT 9999 FEW017 32/21 Q1012
Loading
Personal Weather Stations






























Interactive Weather Map New forecast layout! Learn more

10-Day Weather Forecast

Advertisements
Track Severe Weather on mobile